createdAt,value
2022-09-28T00:02:17.058Z,21.23
2022-09-28T00:05:19.048Z,12.77
2022-09-28T00:08:20.667Z,17.58
2022-09-28T00:11:24.331Z,16.65
2022-09-28T00:14:26.296Z,16.95
2022-09-28T00:17:27.896Z,17.13
2022-09-28T00:20:29.694Z,12.07
2022-09-28T00:23:31.961Z,12.98
2022-09-28T00:26:34.017Z,14.25
2022-09-28T00:29:37.296Z,15.32
2022-09-28T00:32:38.856Z,13.27
2022-09-28T00:35:40.705Z,17.50
2022-09-28T00:38:42.746Z,18.17
2022-09-28T00:41:45.215Z,13.35
2022-09-28T00:44:49.745Z,19.13
2022-09-28T00:47:58.087Z,16.90
2022-09-28T00:51:02.632Z,19.88
2022-09-28T00:54:07.551Z,21.63
2022-09-28T00:57:09.607Z,17.23
2022-09-28T01:00:12.024Z,17.25
2022-09-28T01:03:14.260Z,17.83
2022-09-28T01:06:20.378Z,14.65
2022-09-28T01:09:22.170Z,17.35
2022-09-28T01:12:23.808Z,16.60
2022-09-28T01:15:27.642Z,15.18
2022-09-28T01:18:40.624Z,13.15
2022-09-28T01:22:14.537Z,17.85
2022-09-28T01:25:42.996Z,17.00
2022-09-28T01:28:50.323Z,18.33
2022-09-28T01:32:01.324Z,18.42
2022-09-28T01:35:35.920Z,19.95
2022-09-28T01:38:51.290Z,20.23
2022-09-28T01:41:55.602Z,17.38
2022-09-28T01:45:06.911Z,18.45
2022-09-28T01:48:13.163Z,19.58
2022-09-28T01:51:21.906Z,23.52
2022-09-28T01:54:40.390Z,19.77
2022-09-28T01:57:53.016Z,17.90
2022-09-28T02:01:02.563Z,19.27
2022-09-28T02:04:45.558Z,20.90
2022-09-28T02:08:11.216Z,18.63
2022-09-28T02:11:17.915Z,22.00
2022-09-28T02:14:21.167Z,24.98
2022-09-28T02:17:22.864Z,23.23
2022-09-28T02:20:25.112Z,30.55
2022-09-28T02:23:29.049Z,25.75
2022-09-28T02:26:41.761Z,21.10
2022-09-28T02:29:43.460Z,29.88
2022-09-28T02:32:49.779Z,30.88
2022-09-28T02:35:51.493Z,30.67
2022-09-28T02:38:53.792Z,27.40
2022-09-28T02:42:12.171Z,30.08
2022-09-28T02:45:35.304Z,28.13
2022-09-28T02:49:10.652Z,29.63
2022-09-28T02:53:05.946Z,39.27
2022-09-28T02:56:28.028Z,38.65
2022-09-28T02:59:39.952Z,42.42
2022-09-28T03:02:58.764Z,41.85
2022-09-28T03:06:06.115Z,48.33
2022-09-28T03:09:17.502Z,43.53
2022-09-28T03:12:20.699Z,58.40
2022-09-28T03:15:26.677Z,51.67
2022-09-28T03:18:28.261Z,52.75
2022-09-28T03:21:29.818Z,45.80
2022-09-28T03:24:32.517Z,67.53
2022-09-28T03:27:34.485Z,52.17
2022-09-28T03:30:36.114Z,49.53
2022-09-28T03:33:37.712Z,54.65
2022-09-28T03:36:39.342Z,54.67
2022-09-28T03:39:40.965Z,54.97
2022-09-28T03:42:43.874Z,42.75
2022-09-28T03:45:54.405Z,48.92
2022-09-28T03:48:58.490Z,49.13
2022-09-28T03:52:00.601Z,58.55
2022-09-28T03:55:02.209Z,52.88
2022-09-28T03:58:03.830Z,47.40
2022-09-28T04:01:16.499Z,59.25
2022-09-28T04:04:19.171Z,54.10
2022-09-28T04:07:20.797Z,45.80
2022-09-28T04:10:22.324Z,35.22
2022-09-28T04:13:24.828Z,41.83
2022-09-28T04:16:27.060Z,40.47
2022-09-28T04:19:28.717Z,45.85
2022-09-28T04:22:30.294Z,43.47
2022-09-28T04:25:31.852Z,39.75
2022-09-28T04:28:52.235Z,42.15
2022-09-28T04:31:55.487Z,43.28
2022-09-28T04:34:57.229Z,39.38
2022-09-28T04:37:58.969Z,34.33
2022-09-28T04:41:01.311Z,38.95
2022-09-28T04:44:03.639Z,36.00
2022-09-28T04:47:05.525Z,35.17
2022-09-28T04:50:07.582Z,34.08
2022-09-28T04:53:09.235Z,34.03
2022-09-28T04:56:13.107Z,40.25
2022-09-28T04:59:15.633Z,37.40
2022-09-28T05:02:17.549Z,38.33
2022-09-28T05:05:19.274Z,39.72
2022-09-28T05:08:21.131Z,47.67
2022-09-28T05:11:22.831Z,49.53
2022-09-28T05:14:24.631Z,35.63
2022-09-28T05:17:26.260Z,45.05
2022-09-28T05:20:27.966Z,45.40
2022-09-28T05:23:29.546Z,51.40
2022-09-28T05:26:31.110Z,44.72
2022-09-28T05:29:32.886Z,49.92
2022-09-28T05:32:34.515Z,43.58
2022-09-28T05:35:36.620Z,48.08
2022-09-28T05:38:38.249Z,48.10
2022-09-28T05:41:39.897Z,46.42
2022-09-28T05:44:41.473Z,48.00
2022-09-28T05:47:46.040Z,48.78
2022-09-28T05:50:52.284Z,42.30
2022-09-28T05:54:00.692Z,48.92
2022-09-28T05:57:06.999Z,44.90
2022-09-28T06:00:09.544Z,38.97
2022-09-28T06:03:13.295Z,50.35
2022-09-28T06:06:14.997Z,44.45
2022-09-28T06:09:16.572Z,44.80
2022-09-28T06:12:18.380Z,43.40
2022-09-28T06:15:20.497Z,46.42
2022-09-28T06:18:22.166Z,43.40
2022-09-28T06:21:23.735Z,50.47
2022-09-28T06:24:25.320Z,49.22
2022-09-28T06:27:27.217Z,39.65
2022-09-28T06:30:31.094Z,47.83
2022-09-28T06:33:32.729Z,38.83
2022-09-28T06:36:34.369Z,51.63
2022-09-28T06:39:35.925Z,45.22
2022-09-28T06:42:37.534Z,46.35
2022-09-28T06:45:39.358Z,48.33
2022-09-28T06:48:41.062Z,39.90
2022-09-28T06:51:42.636Z,43.53
2022-09-28T06:54:44.192Z,40.55
2022-09-28T06:57:45.793Z,40.00
2022-09-28T07:00:50.166Z,43.38
2022-09-28T07:03:55.494Z,40.15
2022-09-28T07:06:59.024Z,37.80
2022-09-28T07:10:00.698Z,34.08
2022-09-28T07:13:04.851Z,36.85
2022-09-28T07:16:06.970Z,36.80
2022-09-28T07:19:09.637Z,36.08
2022-09-28T07:22:18.540Z,36.03
2022-09-28T07:25:21.863Z,38.23
2022-09-28T07:28:23.979Z,41.17
2022-09-28T07:31:25.656Z,38.83
2022-09-28T07:34:27.276Z,39.40
2022-09-28T07:37:28.933Z,32.80
2022-09-28T07:40:50.278Z,38.03
2022-09-28T07:43:52.387Z,37.95
2022-09-28T07:46:54.481Z,36.05
2022-09-28T07:49:57.127Z,43.45
2022-09-28T07:52:58.926Z,36.35
2022-09-28T07:56:06.981Z,37.55
2022-09-28T07:59:08.738Z,34.63
2022-09-28T08:02:11.666Z,32.83
2022-09-28T08:05:13.470Z,39.60
2022-09-28T08:08:15.609Z,39.30
2022-09-28T08:11:20.406Z,34.63
2022-09-28T08:14:22.110Z,37.97
2022-09-28T08:17:23.698Z,36.60
2022-09-28T08:20:46.950Z,35.85
2022-09-28T08:23:50.119Z,36.45
2022-09-28T08:26:51.762Z,38.30
2022-09-28T08:29:53.345Z,35.75
2022-09-28T08:32:54.932Z,36.60
2022-09-28T08:35:58.234Z,32.45
2022-09-28T08:38:59.780Z,48.28
2022-09-28T08:42:20.940Z,38.85
2022-09-28T08:45:27.371Z,33.20
2022-09-28T08:48:51.812Z,37.40
2022-09-28T08:52:26.148Z,40.72
2022-09-28T08:55:34.946Z,38.67
2022-09-28T08:58:43.145Z,35.50
2022-09-28T09:01:50.362Z,38.97
2022-09-28T09:04:53.081Z,35.42
2022-09-28T09:08:18.437Z,36.55
2022-09-28T09:11:58.138Z,34.30
2022-09-28T09:15:27.164Z,29.35
2022-09-28T09:18:41.792Z,29.75
2022-09-28T09:21:56.159Z,25.38
2022-09-28T09:25:20.296Z,24.98
2022-09-28T09:28:47.881Z,25.02
2022-09-28T09:32:20.066Z,22.88
2022-09-28T09:35:46.539Z,24.63
2022-09-28T09:38:53.840Z,22.65
2022-09-28T09:42:04.457Z,17.40
2022-09-28T09:45:23.863Z,18.17
2022-09-28T09:48:35.279Z,19.33
2022-09-28T09:51:49.314Z,17.42
2022-09-28T09:54:57.698Z,17.02
2022-09-28T09:58:09.392Z,13.65
2022-09-28T10:01:19.283Z,13.02
2022-09-28T10:04:36.297Z,12.00
2022-09-28T10:07:47.861Z,16.13
2022-09-28T10:11:01.712Z,14.55
2022-09-28T10:14:04.558Z,22.38
2022-09-28T10:17:06.624Z,16.10
2022-09-28T10:20:13.448Z,16.83
2022-09-28T10:23:24.736Z,14.25
2022-09-28T10:26:39.861Z,12.88
2022-09-28T10:29:52.301Z,15.77
2022-09-28T10:32:59.137Z,15.40
2022-09-28T10:36:02.016Z,16.20
2022-09-28T10:39:21.799Z,13.35
2022-09-28T10:42:30.122Z,14.68
2022-09-28T10:45:35.785Z,10.73
2022-09-28T10:48:58.416Z,11.07
2022-09-28T10:52:00.223Z,10.63
2022-09-28T10:55:03.483Z,10.38
2022-09-28T10:58:26.053Z,12.30
2022-09-28T11:01:33.159Z,9.15
2022-09-28T11:04:41.061Z,12.85
2022-09-28T11:07:47.839Z,9.85
2022-09-28T11:11:02.628Z,12.38
2022-09-28T11:14:04.508Z,10.80
2022-09-28T11:17:18.561Z,13.95
2022-09-28T11:20:31.761Z,10.57
2022-09-28T11:23:33.628Z,14.73
2022-09-28T11:26:40.674Z,11.80
2022-09-28T11:29:44.147Z,13.68
2022-09-28T11:32:46.578Z,9.40
2022-09-28T11:36:03.329Z,12.05
2022-09-28T11:39:05.022Z,10.90
2022-09-28T11:42:37.616Z,8.50
2022-09-28T11:45:54.735Z,12.90
2022-09-28T11:49:23.571Z,8.02
2022-09-28T11:52:36.718Z,9.45
2022-09-28T11:56:07.922Z,9.07
2022-09-28T11:59:24.561Z,7.38
2022-09-28T12:02:34.656Z,10.60
2022-09-28T12:05:47.232Z,12.50
2022-09-28T12:09:00.801Z,15.63
2022-09-28T12:12:05.474Z,13.00
2022-09-28T12:15:19.434Z,13.15
2022-09-28T12:18:30.648Z,13.55
2022-09-28T12:21:52.674Z,13.13
2022-09-28T12:24:57.204Z,14.82
2022-09-28T12:28:07.075Z,10.48
2022-09-28T12:31:17.126Z,11.97
2022-09-28T12:34:18.840Z,16.15
2022-09-28T12:37:35.859Z,16.83
2022-09-28T12:41:17.789Z,15.43
2022-09-28T12:44:59.661Z,10.07
2022-09-28T12:48:10.469Z,9.57
2022-09-28T12:51:41.433Z,6.53
2022-09-28T12:54:58.618Z,8.38
2022-09-28T12:58:22.495Z,9.57
2022-09-28T13:01:31.474Z,12.25
2022-09-28T13:05:04.376Z,9.00
2022-09-28T13:08:30.841Z,9.25
2022-09-28T13:11:58.899Z,10.48
2022-09-28T13:15:09.801Z,10.48
2022-09-28T13:18:15.959Z,13.23
2022-09-28T13:21:36.421Z,12.05
2022-09-28T13:24:44.166Z,12.50
2022-09-28T13:27:57.973Z,10.52
2022-09-28T13:31:02.094Z,14.00
2022-09-28T13:34:04.999Z,9.80
2022-09-28T13:37:21.810Z,15.02
2022-09-28T13:41:02.183Z,11.90
2022-09-28T13:44:21.235Z,13.57
2022-09-28T13:47:42.196Z,9.07
2022-09-28T13:51:26.110Z,11.52
2022-09-28T13:54:41.360Z,10.13
2022-09-28T13:58:06.645Z,11.73
2022-09-28T14:01:13.027Z,9.35
2022-09-28T14:04:21.019Z,15.18
2022-09-28T14:07:34.868Z,13.23
2022-09-28T14:10:49.331Z,10.02
2022-09-28T14:14:11.821Z,13.30
2022-09-28T14:17:22.826Z,10.43
2022-09-28T14:20:27.645Z,11.27
2022-09-28T14:24:00.040Z,11.57
2022-09-28T14:27:46.246Z,11.32
2022-09-28T14:30:51.529Z,10.02
2022-09-28T14:33:59.646Z,14.10
2022-09-28T14:37:23.348Z,9.65
2022-09-28T14:41:08.173Z,12.55
2022-09-28T14:44:16.652Z,13.50
2022-09-28T14:47:34.186Z,11.68
2022-09-28T14:50:35.845Z,14.15
2022-09-28T14:53:39.002Z,17.25
2022-09-28T14:56:52.757Z,14.10
2022-09-28T14:59:58.541Z,14.30
2022-09-28T15:03:03.769Z,14.25
2022-09-28T15:06:05.552Z,15.38
2022-09-28T15:09:36.460Z,18.10
2022-09-28T15:15:42.209Z,12.35
2022-09-28T15:18:59.161Z,12.90
2022-09-28T15:22:00.861Z,9.52
2022-09-28T15:25:13.213Z,16.08
2022-09-28T15:28:22.084Z,16.02
2022-09-28T15:31:26.931Z,9.20
2022-09-28T15:34:51.794Z,5.47
2022-09-28T15:37:55.327Z,5.35
2022-09-28T15:40:57.503Z,8.10
2022-09-28T15:44:07.076Z,7.72
2022-09-28T15:47:13.993Z,10.05
2022-09-28T15:50:25.078Z,9.30
2022-09-28T15:53:27.071Z,5.05
2022-09-28T15:56:29.619Z,4.50
2022-09-28T15:59:41.138Z,3.85
2022-09-28T16:03:01.695Z,3.65
2022-09-28T16:06:10.791Z,6.75
2022-09-28T16:09:40.293Z,5.05
2022-09-28T16:12:50.453Z,5.35
2022-09-28T16:15:59.756Z,2.53
2022-09-28T16:19:03.108Z,5.85
2022-09-28T16:22:10.547Z,4.10
2022-09-28T16:25:24.542Z,5.18
2022-09-28T16:28:38.191Z,4.30
2022-09-28T16:31:43.118Z,4.95
2022-09-28T16:35:20.284Z,6.82
2022-09-28T16:38:31.575Z,2.15
2022-09-28T16:41:33.367Z,4.28
2022-09-28T16:44:36.896Z,4.30
2022-09-28T16:47:49.623Z,5.90
2022-09-28T16:51:29.781Z,5.72
2022-09-28T16:54:59.574Z,7.88
2022-09-28T16:58:04.676Z,6.72
2022-09-28T17:01:08.696Z,6.22
2022-09-28T17:07:51.517Z,9.80
2022-09-28T17:11:33.678Z,25.33
2022-09-28T17:19:23.437Z,5.75
2022-09-28T17:30:26.023Z,8.95
2022-09-28T17:33:45.665Z,10.65
2022-09-28T17:36:47.843Z,15.75
2022-09-28T17:39:49.403Z,13.18
2022-09-28T17:42:51.781Z,14.25
2022-09-28T17:45:53.471Z,9.85
2022-09-28T17:48:57.525Z,10.80
2022-09-28T17:51:59.122Z,14.35
2022-09-28T17:55:00.737Z,10.57
2022-09-28T17:58:19.638Z,12.75
2022-09-28T18:01:21.307Z,10.50
2022-09-28T18:04:47.555Z,10.90
2022-09-28T18:07:47.532Z,13.55
2022-09-28T18:10:50.348Z,10.18
2022-09-28T18:13:52.030Z,10.10
2022-09-28T18:16:53.646Z,12.63
2022-09-28T18:19:55.243Z,7.70
2022-09-28T18:22:57.653Z,13.40
2022-09-28T18:25:59.287Z,8.00
2022-09-28T18:29:00.866Z,9.43
2022-09-28T18:32:03.403Z,10.15
2022-09-28T18:35:07.859Z,12.98
2022-09-28T18:38:09.492Z,12.25
2022-09-28T18:41:16.752Z,13.05
2022-09-28T18:44:18.398Z,11.77
2022-09-28T18:47:20.141Z,10.68
2022-09-28T18:50:21.777Z,10.15
2022-09-28T18:53:23.856Z,12.45
2022-09-28T18:56:25.904Z,8.70
2022-09-28T18:59:27.606Z,12.43
2022-09-28T19:02:29.376Z,10.57
2022-09-28T19:05:31.109Z,8.30
2022-09-28T19:08:32.711Z,15.23
2022-09-28T19:11:34.800Z,15.38
2022-09-28T19:14:36.502Z,11.23
2022-09-28T19:17:38.817Z,9.13
2022-09-28T19:20:40.551Z,9.23
2022-09-28T19:23:49.282Z,10.20
2022-09-28T19:26:54.987Z,8.35
2022-09-28T19:29:56.655Z,8.30
2022-09-28T19:32:58.246Z,11.60
2022-09-28T19:36:02.072Z,11.25
2022-09-28T19:39:07.064Z,7.40
2022-09-28T19:42:08.737Z,7.47
2022-09-28T19:45:10.824Z,7.45
2022-09-28T19:48:12.452Z,6.43
2022-09-28T19:51:14.051Z,7.75
2022-09-28T19:54:17.656Z,11.60
2022-09-28T19:57:19.472Z,6.97
2022-09-28T20:00:21.273Z,7.85
2022-09-28T20:03:24.326Z,8.73
2022-09-28T20:06:26.646Z,9.40
2022-09-28T20:09:28.329Z,14.52
2022-09-28T20:12:29.927Z,9.02
2022-09-28T20:15:31.671Z,13.60
2022-09-28T20:18:35.375Z,11.88
2022-09-28T20:21:36.988Z,14.90
2022-09-28T20:24:38.741Z,12.88
2022-09-28T20:27:40.405Z,14.23
2022-09-28T20:30:42.000Z,14.60
2022-09-28T20:33:44.029Z,19.25
2022-09-28T20:36:45.907Z,13.77
2022-09-28T20:39:47.557Z,16.40
2022-09-28T20:42:49.107Z,15.40
2022-09-28T20:45:50.824Z,15.48
2022-09-28T20:48:57.350Z,16.48
2022-09-28T20:51:59.042Z,15.00
2022-09-28T20:55:00.618Z,18.50
2022-09-28T20:58:03.489Z,16.25
2022-09-28T21:01:10.916Z,18.33
2022-09-28T21:04:12.593Z,19.35
2022-09-28T21:07:14.305Z,20.52
2022-09-28T21:10:16.630Z,18.88
2022-09-28T21:13:18.281Z,18.85
2022-09-28T21:16:20.667Z,21.17
2022-09-28T21:19:28.350Z,17.92
2022-09-28T21:22:29.969Z,23.02
2022-09-28T21:25:31.625Z,22.38
2022-09-28T21:28:33.807Z,18.98
2022-09-28T21:31:45.614Z,19.45
2022-09-28T21:34:47.275Z,18.98
2022-09-28T21:37:49.656Z,20.67
2022-09-28T21:40:55.995Z,19.73
2022-09-28T21:43:57.891Z,21.63
2022-09-28T21:46:59.504Z,21.20
2022-09-28T21:50:01.185Z,24.10
2022-09-28T21:53:03.210Z,24.33
2022-09-28T21:56:07.260Z,16.73
2022-09-28T21:59:08.894Z,24.95
2022-09-28T22:02:10.557Z,25.40
2022-09-28T22:05:13.104Z,19.77
2022-09-28T22:08:14.749Z,27.50
2022-09-28T22:11:19.523Z,26.90
2022-09-28T22:14:21.261Z,24.55
2022-09-28T22:17:22.930Z,23.92
2022-09-28T22:20:24.605Z,26.27
2022-09-28T22:23:27.604Z,28.55
2022-09-28T22:26:31.644Z,27.65
2022-09-28T22:29:33.280Z,32.75
2022-09-28T22:32:35.299Z,31.92
2022-09-28T22:35:36.880Z,29.30
2022-09-28T22:38:39.067Z,25.50
2022-09-28T22:41:40.951Z,26.00
2022-09-28T22:44:42.722Z,23.17
2022-09-28T22:47:44.302Z,27.83
2022-09-28T22:50:51.082Z,26.00
2022-09-28T22:53:52.933Z,28.40
2022-09-28T22:56:54.516Z,27.25
2022-09-28T22:59:56.140Z,27.33
2022-09-28T23:02:57.901Z,28.27
2022-09-28T23:05:59.630Z,28.30
2022-09-28T23:09:01.431Z,29.77
2022-09-28T23:12:03.099Z,36.25
2022-09-28T23:15:06.077Z,27.83
2022-09-28T23:18:08.538Z,25.70
2022-09-28T23:21:13.313Z,27.73
2022-09-28T23:24:14.939Z,24.23
2022-09-28T23:27:16.589Z,28.60
2022-09-28T23:30:19.927Z,32.47
2022-09-28T23:33:22.278Z,30.13
2022-09-28T23:36:23.944Z,26.00
2022-09-28T23:39:25.586Z,28.65
2022-09-28T23:42:27.154Z,29.33
2022-09-28T23:45:28.848Z,23.65
2022-09-28T23:48:30.883Z,22.23
2022-09-28T23:51:32.599Z,22.95
2022-09-28T23:54:34.241Z,25.13
2022-09-28T23:57:35.896Z,25.30
